Terminal Aerodrome Forecast
Issued by NWS

Home | Current Version | Previous Version | Text Only | Print | Product List | Glossary On
Versions: 1 2 3 4 5 6 7 8 9 10 11 12 13 14 15
000
FTUS45 KRIW 062331
TAFCPR
TAF
KCPR 062331Z 0700/0724 13006KT P6SM BKN050
      TEMPO 0709/0713 5SM BR BKN025
     FM071300 VRB05KT P6SM VCFG SCT025 SCT060
     FM071800 04006KT P6SM SCT060 SCT100
     FM072300 07005KT P6SM VCTS BKN060CB=

USA.gov is the U.S. government's official web portal to all federal, state and local government web resources and services.